createdAt,value
2019-04-25T00:02:29.224Z,23.41
2019-04-25T00:07:33.443Z,23.32
2019-04-25T00:12:37.949Z,23.32
2019-04-25T00:17:44.417Z,23.37
2019-04-25T00:22:54.049Z,23.34
2019-04-25T00:27:58.127Z,23.31
2019-04-25T00:33:02.194Z,23.29
2019-04-25T00:38:06.181Z,23.26
2019-04-25T00:43:11.415Z,23.21
2019-04-25T00:48:15.520Z,23.21
2019-04-25T00:53:21.145Z,23.18
2019-04-25T00:58:37.975Z,23.16
2019-04-25T01:03:44.130Z,23.16
2019-04-25T01:08:48.572Z,23.11
2019-04-25T01:13:53.352Z,23.09
2019-04-25T01:18:57.493Z,23.09
2019-04-25T01:24:01.684Z,23.06
2019-04-25T01:29:06.668Z,23.06
2019-04-25T01:34:14.145Z,23.04
2019-04-25T01:39:36.426Z,23.01
2019-04-25T01:44:44.105Z,22.95
2019-04-25T01:49:48.866Z,22.94
2019-04-25T01:54:54.701Z,22.94
2019-04-25T01:59:58.854Z,22.92
2019-04-25T02:05:05.102Z,22.91
2019-04-25T02:10:09.967Z,22.89
2019-04-25T02:15:15.779Z,22.88
2019-04-25T02:20:20.152Z,22.88
2019-04-25T02:25:24.622Z,22.87
2019-04-25T02:30:28.784Z,22.84
2019-04-25T02:35:34.944Z,22.83
2019-04-25T02:40:38.810Z,22.83
2019-04-25T02:46:15.166Z,22.81
2019-04-25T02:51:27.309Z,22.79
2019-04-25T02:56:35.802Z,22.77
2019-04-25T03:01:37.223Z,22.77
2019-04-25T03:06:41.410Z,22.76
2019-04-25T03:11:47.591Z,22.75
2019-04-25T03:16:51.455Z,22.73
2019-04-25T03:21:56.926Z,22.72
2019-04-25T03:27:01.085Z,22.71
2019-04-25T03:32:09.828Z,22.70
2019-04-25T03:37:11.521Z,22.68
2019-04-25T03:42:15.590Z,22.71
2019-04-25T03:47:19.690Z,22.65
2019-04-25T03:52:23.986Z,22.65
2019-04-25T03:57:28.048Z,22.57
2019-04-25T04:02:32.081Z,22.53
2019-04-25T04:07:36.099Z,22.53
2019-04-25T04:12:40.108Z,22.47
2019-04-25T04:18:05.105Z,22.44
2019-04-25T04:23:19.857Z,22.35
2019-04-25T04:28:24.007Z,22.34
2019-04-25T04:33:32.395Z,22.34
2019-04-25T04:38:35.895Z,22.30
2019-04-25T04:43:39.926Z,22.30
2019-04-25T04:48:43.991Z,22.37
2019-04-25T04:53:47.996Z,22.35
2019-04-25T04:58:51.984Z,22.26
2019-04-25T05:04:06.391Z,22.33
2019-04-25T05:09:20.740Z,22.32
2019-04-25T05:14:26.640Z,22.32
2019-04-25T05:19:30.432Z,22.31
2019-04-25T05:24:34.431Z,22.32
2019-04-25T05:29:38.846Z,22.32
2019-04-25T05:34:44.113Z,22.34
2019-04-25T05:39:48.758Z,22.34
2019-04-25T05:44:54.100Z,22.35
2019-04-25T05:49:58.198Z,19.91
2019-04-25T05:55:03.885Z,19.59
2019-04-25T06:00:10.040Z,19.43
2019-04-25T06:05:14.275Z,19.24
2019-04-25T06:10:37.332Z,19.19
2019-04-25T06:15:43.356Z,19.14
2019-04-25T06:20:47.548Z,18.92
2019-04-25T06:25:51.621Z,18.79
2019-04-25T06:30:55.771Z,18.87
2019-04-25T06:35:59.801Z,18.80
2019-04-25T06:41:03.977Z,18.74
2019-04-25T06:46:43.987Z,18.73
2019-04-25T06:51:52.176Z,18.67
2019-04-25T06:56:56.378Z,18.67
2019-04-25T07:02:00.487Z,18.85
2019-04-25T07:07:12.377Z,18.81
2019-04-25T07:12:10.628Z,18.77
2019-04-25T07:17:14.750Z,18.86
2019-04-25T07:22:18.860Z,19.69
2019-04-25T07:27:36.885Z,20.13
2019-04-25T07:32:48.076Z,20.45
2019-04-25T07:37:52.144Z,20.45
2019-04-25T07:42:56.259Z,20.74
2019-04-25T07:48:00.393Z,20.84
2019-04-25T07:53:05.743Z,20.95
2019-04-25T07:58:10.092Z,21.02
2019-04-25T08:03:15.455Z,21.08
2019-04-25T08:08:19.688Z,21.08
2019-04-25T08:13:24.831Z,21.21
2019-04-25T08:18:30.207Z,21.19
2019-04-25T08:23:37.740Z,21.19
2019-04-25T08:28:54.051Z,21.34
2019-04-25T08:33:46.760Z,21.38
2019-04-25T08:38:50.891Z,21.42
2019-04-25T08:43:54.897Z,21.42
2019-04-25T08:49:07.647Z,21.47
2019-04-25T08:54:31.979Z,21.50
2019-04-25T08:59:52.472Z,21.54
2019-04-25T09:05:14.376Z,21.58
2019-04-25T09:10:18.510Z,21.60
2019-04-25T09:15:23.981Z,21.62
2019-04-25T09:20:28.445Z,21.64
2019-04-25T09:25:34.522Z,21.67
2019-04-25T09:30:38.497Z,21.70
2019-04-25T09:35:42.562Z,21.71
2019-04-25T09:40:48.320Z,21.71
2019-04-25T09:46:04.759Z,21.74
2019-04-25T09:51:28.527Z,21.74
2019-04-25T09:56:40.479Z,21.79
2019-04-25T10:01:48.255Z,21.73
2019-04-25T10:06:53.499Z,21.73
2019-04-25T10:11:57.821Z,21.86
2019-04-25T10:17:03.683Z,21.88
2019-04-25T10:22:07.985Z,21.89
2019-04-25T10:27:13.880Z,21.89
2019-04-25T10:32:18.173Z,21.91
2019-04-25T10:37:22.308Z,21.93
2019-04-25T10:42:26.490Z,21.93
2019-04-25T10:47:30.938Z,22.01
2019-04-25T10:52:35.101Z,21.99
2019-04-25T10:57:39.163Z,21.97
2019-04-25T11:02:45.491Z,21.97
2019-04-25T11:07:49.661Z,22.10
2019-04-25T11:12:55.168Z,22.07
2019-04-25T11:17:59.293Z,22.10
2019-04-25T11:23:03.869Z,22.12
2019-04-25T11:28:10.343Z,22.12
2019-04-25T11:33:14.532Z,22.22
2019-04-25T11:38:30.856Z,22.13
2019-04-25T11:43:35.680Z,22.27
2019-04-25T11:48:39.919Z,22.24
2019-04-25T11:53:45.102Z,22.23
2019-04-25T11:58:50.654Z,22.26
2019-04-25T12:03:56.082Z,22.26
2019-04-25T12:09:00.258Z,22.28
2019-04-25T12:14:04.434Z,22.29
2019-04-25T12:19:08.582Z,22.30
2019-04-25T12:24:13.697Z,22.32
2019-04-25T12:29:17.914Z,22.33
2019-04-25T12:34:22.069Z,22.34
2019-04-25T12:39:26.148Z,22.27
2019-04-25T12:44:50.830Z,22.29
2019-04-25T12:49:56.027Z,22.30
2019-04-25T12:55:00.195Z,22.44
2019-04-25T13:00:04.692Z,22.46
2019-04-25T13:05:08.844Z,22.47
2019-04-25T13:10:15.318Z,22.47
2019-04-25T13:15:19.412Z,22.50
2019-04-25T13:20:23.413Z,22.71
2019-04-25T13:25:27.965Z,22.71
2019-04-25T13:30:59.804Z,22.70
2019-04-25T13:36:04.030Z,22.65
2019-04-25T13:41:08.404Z,22.65
2019-04-25T13:46:15.852Z,22.77
2019-04-25T13:51:18.371Z,22.77
2019-04-25T13:56:25.085Z,22.79
2019-04-25T14:01:28.434Z,22.73
2019-04-25T14:06:32.559Z,22.80
2019-04-25T14:11:36.572Z,22.79
2019-04-25T14:17:07.100Z,22.80
2019-04-25T14:22:11.418Z,22.82
2019-04-25T14:27:17.622Z,22.84
2019-04-25T14:32:24.217Z,22.90
2019-04-25T14:37:30.240Z,22.95
2019-04-25T14:42:33.275Z,22.95
2019-04-25T14:47:37.259Z,23.06
2019-04-25T14:52:41.592Z,23.10
2019-04-25T14:57:45.625Z,23.11
2019-04-25T15:02:49.850Z,23.14
2019-04-25T15:07:53.974Z,23.18
2019-04-25T15:12:58.141Z,23.18
2019-04-25T15:18:02.223Z,23.18
2019-04-25T15:23:06.388Z,23.26
2019-04-25T15:28:10.412Z,23.29
2019-04-25T15:33:14.689Z,23.34
2019-04-25T15:38:25.245Z,23.34
2019-04-25T15:43:48.301Z,23.50
2019-04-25T15:48:52.302Z,23.40
2019-04-25T15:53:56.312Z,23.40
2019-04-25T15:59:00.360Z,23.40
2019-04-25T16:04:04.592Z,23.40
2019-04-25T16:09:10.562Z,23.46
2019-04-25T16:14:14.754Z,23.56
2019-04-25T16:19:18.844Z,23.58
2019-04-25T16:24:22.960Z,23.52
2019-04-25T16:29:27.730Z,23.60
2019-04-25T16:34:32.131Z,23.61
2019-04-25T16:39:37.923Z,23.69
2019-04-25T16:44:42.002Z,23.62
2019-04-25T16:49:46.084Z,23.48
2019-04-25T16:54:50.184Z,23.46
2019-04-25T16:59:54.275Z,23.41
2019-04-25T17:04:59.389Z,23.37
2019-04-25T17:10:03.563Z,23.41
2019-04-25T17:15:26.210Z,23.43
2019-04-25T17:20:34.382Z,23.33
2019-04-25T17:25:38.615Z,23.44
2019-04-25T17:30:44.292Z,23.20
2019-04-25T17:36:01.871Z,23.20
2019-04-25T17:41:06.036Z,23.05
2019-04-25T17:46:11.951Z,23.01
2019-04-25T17:51:15.952Z,23.04
2019-04-25T17:56:20.097Z,23.19
2019-04-25T18:01:24.525Z,23.19
2019-04-25T18:06:28.524Z,23.11
2019-04-25T18:11:32.552Z,23.12
2019-04-25T18:16:42.332Z,23.12
2019-04-25T18:21:46.597Z,23.25
2019-04-25T18:27:09.591Z,23.21
2019-04-25T18:32:13.806Z,23.21
2019-04-25T18:37:25.691Z,23.23
2019-04-25T18:42:47.734Z,23.29
2019-04-25T18:47:51.790Z,23.38
2019-04-25T18:53:17.611Z,23.38
2019-04-25T18:58:42.554Z,23.35
2019-04-25T19:03:55.253Z,23.36
2019-04-25T19:08:59.411Z,23.38
2019-04-25T19:14:03.619Z,23.38
2019-04-25T19:19:07.765Z,23.47
2019-04-25T19:24:11.817Z,23.41
2019-04-25T19:29:15.901Z,23.39
2019-04-25T19:34:19.924Z,23.41
2019-04-25T19:39:25.684Z,23.41
2019-04-25T19:44:29.865Z,23.41
2019-04-25T19:49:33.986Z,23.49
2019-04-25T19:54:40.881Z,23.49
2019-04-25T19:59:46.441Z,23.54
2019-04-25T20:04:58.191Z,23.55
2019-04-25T20:10:17.346Z,23.56
2019-04-25T20:15:21.455Z,23.58
2019-04-25T20:20:25.630Z,23.58
2019-04-25T20:25:29.655Z,23.59
2019-04-25T20:30:33.660Z,23.59
2019-04-25T20:35:37.748Z,23.60
2019-04-25T20:40:41.854Z,23.49
2019-04-25T20:45:46.857Z,23.60
2019-04-25T20:50:52.466Z,23.61
2019-04-25T20:55:57.090Z,23.61
2019-04-25T21:01:02.846Z,23.65
2019-04-25T21:06:13.351Z,23.65
2019-04-25T21:11:17.375Z,23.67
2019-04-25T21:16:39.385Z,23.68
2019-04-25T21:21:43.491Z,23.70
2019-04-25T21:26:47.516Z,23.69
2019-04-25T21:31:52.520Z,23.61
2019-04-25T21:36:56.638Z,23.61
2019-04-25T21:42:08.868Z,23.73
2019-04-25T21:47:13.304Z,23.74
2019-04-25T21:52:17.577Z,23.74
2019-04-25T21:57:21.949Z,23.75
2019-04-25T22:02:26.579Z,23.75
2019-04-25T22:07:30.858Z,23.76
2019-04-25T22:12:35.141Z,23.76
2019-04-25T22:17:40.231Z,23.76
2019-04-25T22:22:44.375Z,23.77
2019-04-25T22:27:48.960Z,23.75
2019-04-25T22:33:01.497Z,23.77
2019-04-25T22:38:06.364Z,23.78
2019-04-25T22:43:11.998Z,23.78
2019-04-25T22:48:17.916Z,23.80
2019-04-25T22:53:25.085Z,23.80
2019-04-25T22:58:28.074Z,23.80
2019-04-25T23:03:38.088Z,23.80
2019-04-25T23:08:42.149Z,23.80
2019-04-25T23:13:46.208Z,23.79
2019-04-25T23:18:50.412Z,23.71
2019-04-25T23:23:54.516Z,23.81
2019-04-25T23:28:59.415Z,23.81
2019-04-25T23:34:04.493Z,23.80
2019-04-25T23:39:11.243Z,23.80
2019-04-25T23:44:16.177Z,23.82
2019-04-25T23:49:20.615Z,23.80
2019-04-25T23:54:25.111Z,23.80
2019-04-25T23:59:29.471Z,23.82
